createdAt,value
2022-09-28T00:00:11.864Z,980.55
2022-09-28T00:01:11.882Z,980.52
2022-09-28T00:02:11.969Z,980.56
2022-09-28T00:03:11.980Z,980.45
2022-09-28T00:04:11.882Z,980.49
2022-09-28T00:05:11.843Z,980.41
2022-09-28T00:06:12.613Z,980.46
2022-09-28T00:07:11.807Z,980.47
2022-09-28T00:08:11.795Z,980.36
2022-09-28T00:09:11.815Z,980.38
2022-09-28T00:10:11.767Z,980.31
2022-09-28T00:11:11.773Z,980.32
2022-09-28T00:12:11.773Z,980.29
2022-09-28T00:13:11.806Z,980.29
2022-09-28T00:14:11.804Z,980.31
2022-09-28T00:15:11.768Z,980.26
2022-09-28T00:16:11.841Z,980.27
2022-09-28T00:17:11.740Z,980.21
2022-09-28T00:18:11.721Z,980.25
2022-09-28T00:19:11.729Z,980.19
2022-09-28T00:20:11.698Z,980.15
2022-09-28T00:21:11.706Z,980.20
2022-09-28T00:22:11.703Z,980.20
2022-09-28T00:23:11.723Z,980.17
2022-09-28T00:24:11.732Z,980.14
2022-09-28T00:25:11.701Z,980.08
2022-09-28T00:26:12.688Z,980.11
2022-09-28T00:27:11.691Z,980.08
2022-09-28T00:28:11.718Z,980.02
2022-09-28T00:29:11.642Z,979.98
2022-09-28T00:30:11.611Z,980.01
2022-09-28T00:31:11.723Z,979.86
2022-09-28T00:32:11.657Z,979.88
2022-09-28T00:33:11.611Z,979.90
2022-09-28T00:34:11.612Z,979.91
2022-09-28T00:35:11.600Z,979.96
2022-09-28T00:36:11.606Z,979.86
2022-09-28T00:37:11.585Z,979.89
2022-09-28T00:38:11.582Z,979.81
2022-09-28T00:39:11.571Z,979.85
2022-09-28T00:40:11.576Z,979.78
2022-09-28T00:41:11.690Z,979.71
2022-09-28T00:42:11.531Z,979.71
2022-09-28T00:43:11.579Z,979.71
2022-09-28T00:44:11.550Z,979.64
2022-09-28T00:45:11.580Z,979.70
2022-09-28T00:46:11.600Z,979.61
2022-09-28T00:47:11.509Z,979.67
2022-09-28T00:48:11.502Z,979.65
2022-09-28T00:49:11.630Z,979.65
2022-09-28T00:50:11.492Z,979.68
2022-09-28T00:51:11.501Z,979.73
2022-09-28T00:52:11.475Z,979.65
2022-09-28T00:53:11.562Z,979.73
2022-09-28T00:54:11.467Z,979.67
2022-09-28T00:55:11.462Z,979.68
2022-09-28T00:56:11.468Z,979.71
2022-09-28T00:57:11.444Z,979.70
2022-09-28T00:58:11.444Z,979.74
2022-09-28T00:59:11.457Z,979.67
2022-09-28T01:00:11.422Z,979.66
2022-09-28T01:01:11.444Z,979.65
2022-09-28T01:02:11.461Z,979.61
2022-09-28T01:03:11.416Z,979.60
2022-09-28T01:04:11.372Z,979.51
2022-09-28T01:05:11.386Z,979.54
2022-09-28T01:06:11.351Z,979.45
2022-09-28T01:07:11.362Z,979.43
2022-09-28T01:08:11.353Z,979.43
2022-09-28T01:09:11.351Z,979.38
2022-09-28T01:10:11.336Z,979.35
2022-09-28T01:11:11.323Z,979.37
2022-09-28T01:12:11.315Z,979.32
2022-09-28T01:13:11.324Z,979.32
2022-09-28T01:14:11.281Z,979.34
2022-09-28T01:15:11.289Z,979.28
2022-09-28T01:16:11.356Z,979.28
2022-09-28T01:17:12.283Z,979.24
2022-09-28T01:18:11.295Z,979.21
2022-09-28T01:19:11.322Z,979.19
2022-09-28T01:20:11.240Z,979.23
2022-09-28T01:21:11.277Z,979.22
2022-09-28T01:22:11.279Z,979.14
2022-09-28T01:23:11.290Z,979.16
2022-09-28T01:24:11.258Z,979.17
2022-09-28T01:25:11.275Z,979.18
2022-09-28T01:26:11.191Z,979.12
2022-09-28T01:27:11.157Z,979.09
2022-09-28T01:28:12.210Z,979.06
2022-09-28T01:29:11.190Z,979.11
2022-09-28T01:30:12.184Z,979.07
2022-09-28T01:31:11.244Z,979.11
2022-09-28T01:32:11.136Z,979.10
2022-09-28T01:33:11.151Z,979.04
2022-09-28T01:34:11.174Z,979.03
2022-09-28T01:35:11.166Z,979.02
2022-09-28T01:36:11.123Z,979.01
2022-09-28T01:37:11.190Z,979.00
2022-09-28T01:38:11.132Z,978.97
2022-09-28T01:39:11.123Z,978.98
2022-09-28T01:40:11.142Z,978.94
2022-09-28T01:41:11.092Z,978.98
2022-09-28T01:42:11.131Z,978.99
2022-09-28T01:43:11.052Z,978.87
2022-09-28T01:44:11.073Z,978.92
2022-09-28T02:02:39.277Z,978.81
2022-09-28T02:03:39.257Z,978.78
2022-09-28T02:04:39.238Z,978.77
2022-09-28T02:05:39.236Z,978.80
2022-09-28T02:06:41.061Z,978.76
2022-09-28T02:07:40.413Z,978.78
2022-09-28T02:08:40.426Z,978.71
2022-09-28T02:09:40.404Z,978.70
2022-09-28T02:10:40.402Z,978.68
2022-09-28T02:11:40.460Z,978.66
2022-09-28T02:12:40.380Z,978.64
2022-09-28T02:13:40.391Z,978.65
2022-09-28T02:14:40.361Z,978.68
2022-09-28T02:15:40.334Z,978.63
2022-09-28T02:16:40.437Z,978.63
2022-09-28T02:17:40.958Z,978.54
2022-09-28T02:18:40.293Z,978.57
2022-09-28T02:19:40.428Z,978.54
2022-09-28T02:20:40.260Z,978.51
2022-09-28T02:21:40.304Z,978.47
2022-09-28T02:22:40.289Z,978.48
2022-09-28T02:23:40.282Z,978.48
2022-09-28T02:24:40.279Z,978.45
2022-09-28T02:25:40.236Z,978.43
2022-09-28T02:26:40.297Z,978.42
2022-09-28T02:27:40.237Z,978.42
2022-09-28T02:28:40.215Z,978.34
2022-09-28T02:29:40.224Z,978.32
2022-09-28T02:30:40.179Z,978.44
2022-09-28T02:31:40.816Z,978.33
2022-09-28T02:32:40.202Z,978.36
2022-09-28T02:33:40.173Z,978.38
2022-09-28T02:34:40.170Z,978.33
2022-09-28T02:35:40.149Z,978.33
2022-09-28T02:36:40.157Z,978.29
2022-09-28T02:37:40.143Z,978.27
2022-09-28T02:38:40.146Z,978.34
2022-09-28T02:39:40.168Z,978.33
2022-09-28T02:40:40.195Z,978.30
2022-09-28T02:41:40.087Z,978.31
2022-09-28T02:42:40.086Z,978.32
2022-09-28T02:43:40.095Z,978.28
2022-09-28T02:44:40.074Z,978.25
2022-09-28T02:45:40.372Z,978.20
2022-09-28T02:46:40.097Z,978.17
2022-09-28T02:47:40.079Z,978.17
2022-09-28T02:48:44.688Z,978.14
2022-09-28T02:49:42.187Z,978.11
2022-09-28T02:50:40.021Z,978.12
2022-09-28T02:51:40.050Z,978.11
2022-09-28T02:52:39.993Z,978.07
2022-09-28T02:53:39.993Z,978.02
2022-09-28T02:54:40.079Z,978.10
2022-09-28T02:55:40.000Z,978.01
2022-09-28T02:56:39.988Z,978.06
2022-09-28T02:57:39.965Z,978.00
2022-09-28T02:58:39.962Z,978.00
2022-09-28T02:59:39.949Z,978.00
2022-09-28T03:00:40.077Z,977.99
2022-09-28T03:01:40.017Z,977.99
2022-09-28T03:02:39.948Z,977.96
2022-09-28T03:03:39.955Z,977.97
2022-09-28T03:04:39.931Z,977.98
2022-09-28T03:05:39.931Z,977.90
2022-09-28T03:06:39.972Z,977.93
2022-09-28T03:09:50.339Z,977.93
2022-09-28T03:10:50.452Z,977.94
2022-09-28T03:11:50.325Z,977.92
2022-09-28T03:12:52.593Z,977.91
2022-09-28T03:13:51.719Z,977.90
2022-09-28T03:14:52.395Z,977.89
2022-09-28T03:15:52.329Z,977.92
2022-09-28T03:16:51.628Z,977.92
2022-09-28T03:17:53.122Z,977.85
2022-09-28T03:18:52.118Z,977.86
2022-09-28T03:19:51.718Z,977.85
2022-09-28T03:20:51.588Z,977.84
2022-09-28T03:21:51.654Z,977.84
2022-09-28T03:23:12.748Z,977.81
2022-09-28T03:23:54.556Z,977.73
2022-09-28T03:24:51.664Z,977.73
2022-09-28T03:25:51.556Z,977.82
2022-09-28T03:26:51.501Z,977.73
2022-09-28T03:27:51.603Z,977.72
2022-09-28T03:28:53.102Z,977.71
2022-09-28T03:29:53.073Z,977.67
2022-09-28T03:30:52.108Z,977.68
2022-09-28T03:31:54.022Z,977.73
2022-09-28T03:32:51.348Z,977.66
2022-09-28T03:33:52.894Z,977.71
2022-09-28T03:34:51.670Z,977.68
2022-09-28T03:35:53.610Z,977.66
2022-09-28T03:36:53.596Z,977.66
2022-09-28T03:37:52.805Z,977.69
2022-09-28T03:38:52.208Z,977.65
2022-09-28T03:39:55.105Z,977.69
2022-09-28T03:40:52.574Z,977.62
2022-09-28T03:41:51.470Z,977.61
2022-09-28T03:42:52.104Z,977.60
2022-09-28T03:43:51.431Z,977.58
2022-09-28T03:44:51.332Z,977.62
2022-09-28T03:45:54.326Z,977.57
2022-09-28T03:46:51.303Z,977.64
2022-09-28T04:04:23.248Z,977.60
2022-09-28T04:05:24.230Z,977.59
2022-09-28T04:06:25.238Z,977.53
2022-09-28T04:07:28.984Z,977.56
2022-09-28T04:08:24.516Z,977.44
2022-09-28T04:09:24.970Z,977.46
2022-09-28T04:10:27.505Z,977.45
2022-09-28T04:11:34.916Z,977.42
2022-09-28T04:12:24.420Z,977.42
2022-09-28T04:13:27.246Z,977.44
2022-09-28T04:14:24.753Z,977.33
2022-09-28T04:15:24.976Z,977.37
2022-09-28T04:16:23.497Z,977.32
2022-09-28T04:17:24.173Z,977.28
2022-09-28T04:18:23.493Z,977.29
2022-09-28T04:19:24.231Z,977.30
2022-09-28T04:20:23.536Z,977.32
2022-09-28T04:21:24.758Z,977.32
2022-09-28T04:22:24.410Z,977.26
2022-09-28T04:23:24.326Z,977.29
2022-09-28T04:24:24.468Z,977.29
2022-09-28T04:25:23.345Z,977.30
2022-09-28T04:26:23.486Z,977.33
2022-09-28T04:27:23.380Z,977.28
2022-09-28T04:28:23.363Z,977.33
2022-09-28T04:29:23.362Z,977.28
2022-09-28T04:30:23.448Z,977.37
2022-09-28T04:31:23.503Z,977.36
2022-09-28T04:32:25.791Z,977.35
2022-09-28T04:33:24.727Z,977.29
2022-09-28T04:34:29.788Z,977.33
2022-09-28T04:35:24.948Z,977.31
2022-09-28T04:36:24.734Z,977.37
2022-09-28T04:37:24.748Z,977.33
2022-09-28T04:38:48.434Z,977.35
2022-09-28T04:39:26.746Z,977.37
2022-09-28T04:40:23.561Z,977.39
2022-09-28T04:41:26.240Z,977.39
2022-09-28T04:42:25.237Z,977.36
2022-09-28T04:43:24.676Z,977.40
2022-09-28T04:44:26.311Z,977.33
2022-09-28T04:45:28.312Z,977.31
2022-09-28T04:46:24.236Z,977.25
2022-09-28T04:47:24.259Z,977.37
2022-09-28T04:48:23.736Z,977.35
2022-09-28T04:49:23.736Z,977.38
2022-09-28T04:50:23.284Z,977.42
2022-09-28T04:51:23.736Z,977.30
2022-09-28T04:52:23.196Z,977.37
2022-09-28T04:53:23.740Z,977.32
2022-09-28T04:54:23.199Z,977.35
2022-09-28T04:55:24.923Z,977.30
2022-09-28T04:56:25.256Z,977.38
2022-09-28T04:57:23.127Z,977.29
2022-09-28T04:58:24.413Z,977.32
2022-09-28T04:59:25.871Z,977.38
2022-09-28T05:00:24.945Z,977.32
2022-09-28T05:01:24.770Z,977.30
2022-09-28T05:02:24.870Z,977.37
2022-09-28T05:03:24.752Z,977.33
2022-09-28T05:04:26.014Z,977.35
2022-09-28T05:05:24.208Z,977.33
2022-09-28T05:06:23.831Z,977.38
2022-09-28T05:07:24.204Z,977.36
2022-09-28T05:08:23.738Z,977.37
2022-09-28T05:09:23.792Z,977.43
2022-09-28T05:10:23.111Z,977.41
2022-09-28T05:11:23.744Z,977.37
2022-09-28T05:12:23.746Z,977.41
2022-09-28T05:13:23.756Z,977.40
2022-09-28T05:14:24.755Z,977.43
2022-09-28T05:15:25.463Z,977.48
2022-09-28T05:16:23.967Z,977.46
2022-09-28T05:17:58.634Z,977.45
2022-09-28T05:21:13.689Z,977.52
2022-09-28T05:22:13.853Z,977.46
2022-09-28T05:23:16.146Z,977.46
2022-09-28T05:24:15.213Z,977.56
2022-09-28T05:25:16.549Z,977.56
2022-09-28T05:26:15.658Z,977.52
2022-09-28T05:27:14.943Z,977.49
2022-09-28T05:28:14.908Z,977.44
2022-09-28T05:29:15.112Z,977.42
2022-09-28T05:30:16.186Z,977.50
2022-09-28T05:31:16.234Z,977.44
2022-09-28T05:32:15.649Z,977.43
2022-09-28T05:33:15.651Z,977.46
2022-09-28T05:34:15.189Z,977.50
2022-09-28T05:35:16.634Z,977.53
2022-09-28T05:36:16.549Z,977.48
2022-09-28T05:37:15.674Z,977.46
2022-09-28T05:38:15.855Z,977.52
2022-09-28T05:39:15.871Z,977.57
2022-09-28T05:40:14.988Z,977.54
2022-09-28T05:41:18.490Z,977.53
2022-09-28T05:42:15.911Z,977.57
2022-09-28T05:43:17.583Z,977.50
2022-09-28T05:44:15.751Z,977.52
2022-09-28T05:45:14.930Z,977.54
2022-09-28T05:46:17.359Z,977.51
2022-09-28T05:47:15.474Z,977.53
2022-09-28T05:48:15.621Z,977.50
2022-09-28T05:51:12.592Z,977.60
2022-09-28T05:52:13.948Z,977.55
2022-09-28T05:53:21.080Z,977.61
2022-09-28T05:54:12.517Z,977.61
2022-09-28T05:55:12.472Z,977.58
2022-09-28T05:56:13.690Z,977.61
2022-09-28T05:57:14.553Z,977.62
2022-09-28T05:58:13.637Z,977.55
2022-09-28T05:59:13.713Z,977.60
2022-09-28T06:00:13.822Z,977.66
2022-09-28T06:01:15.015Z,977.64
2022-09-28T06:02:14.406Z,977.67
2022-09-28T06:03:14.522Z,977.63
2022-09-28T06:04:14.453Z,977.66
2022-09-28T06:05:13.980Z,977.71
2022-09-28T06:06:14.492Z,977.70
2022-09-28T06:07:14.485Z,977.69
2022-09-28T06:08:13.564Z,977.74
2022-09-28T06:09:14.591Z,977.72
2022-09-28T06:10:13.989Z,977.74
2022-09-28T06:11:13.563Z,977.71
2022-09-28T06:12:14.408Z,977.78
2022-09-28T06:13:15.068Z,977.74
2022-09-28T06:14:13.638Z,977.73
2022-09-28T06:15:13.621Z,977.73
2022-09-28T06:16:14.584Z,977.72
2022-09-28T06:17:14.490Z,977.73
2022-09-28T06:18:13.644Z,977.79
2022-09-28T06:19:14.485Z,977.77
2022-09-28T06:20:13.474Z,977.75
2022-09-28T06:21:13.451Z,977.79
2022-09-28T06:22:13.998Z,977.82
2022-09-28T06:23:14.001Z,977.83
2022-09-28T06:24:13.561Z,977.85
2022-09-28T06:25:14.283Z,977.77
2022-09-28T06:26:13.500Z,977.83
2022-09-28T06:27:13.469Z,977.90
2022-09-28T06:28:13.568Z,977.85
2022-09-28T06:29:18.724Z,977.88
2022-09-28T06:30:15.446Z,977.86
2022-09-28T06:31:14.074Z,977.91
2022-09-28T06:32:13.313Z,977.93
2022-09-28T06:33:13.382Z,977.96
2022-09-28T06:34:13.514Z,977.93
2022-09-28T06:35:13.434Z,977.93
2022-09-28T06:36:13.421Z,977.91
2022-09-28T06:37:13.423Z,977.95
2022-09-28T06:38:14.397Z,977.98
2022-09-28T06:39:14.092Z,977.97
2022-09-28T06:40:14.160Z,977.96
2022-09-28T06:41:13.370Z,978.00
2022-09-28T06:42:13.995Z,978.03
2022-09-28T06:43:13.478Z,977.97
2022-09-28T06:44:13.373Z,978.05
2022-09-28T06:45:14.993Z,978.02
2022-09-28T06:46:14.345Z,978.06
2022-09-28T06:47:15.989Z,978.03
2022-09-28T06:48:14.325Z,978.09
2022-09-28T06:49:16.154Z,978.02
2022-09-28T06:50:16.140Z,978.00
2022-09-28T06:51:13.255Z,978.06
2022-09-28T06:52:16.514Z,978.04
2022-09-28T06:53:13.211Z,978.05
2022-09-28T06:54:13.268Z,977.98
2022-09-28T06:55:14.586Z,978.03
2022-09-28T06:56:13.292Z,978.03
2022-09-28T06:57:13.999Z,978.11
2022-09-28T06:58:15.876Z,978.00
2022-09-28T06:59:14.043Z,978.01
2022-09-28T07:00:13.232Z,978.02
2022-09-28T07:01:13.234Z,977.99
2022-09-28T07:02:15.537Z,977.98
2022-09-28T07:03:15.946Z,977.98
2022-09-28T07:04:14.191Z,977.97
2022-09-28T07:05:16.997Z,977.98
2022-09-28T07:06:13.163Z,977.98
2022-09-28T07:07:13.996Z,978.01
2022-09-28T07:08:13.728Z,978.02
2022-09-28T07:09:30.255Z,978.08
2022-09-28T07:10:17.008Z,978.05
2022-09-28T07:11:14.002Z,978.08
2022-09-28T07:12:13.235Z,978.13
2022-09-28T07:13:33.023Z,978.12
2022-09-28T07:14:32.530Z,978.18
2022-09-28T07:15:15.123Z,978.18
2022-09-28T07:16:13.090Z,978.18
2022-09-28T07:17:14.616Z,978.21
2022-09-28T07:18:14.580Z,978.20
2022-09-28T07:19:13.790Z,978.22
2022-09-28T07:20:18.825Z,978.22
2022-09-28T07:21:28.264Z,978.26
2022-09-28T07:22:18.788Z,978.24
2022-09-28T07:23:19.311Z,978.22
2022-09-28T07:24:15.055Z,978.32
2022-09-28T07:25:13.843Z,978.26
2022-09-28T07:26:12.999Z,978.32
2022-09-28T07:27:13.040Z,978.30
2022-09-28T07:28:13.149Z,978.33
2022-09-28T07:29:12.917Z,978.36
2022-09-28T07:30:13.498Z,978.40
2022-09-28T07:31:15.681Z,978.35
2022-09-28T07:32:15.972Z,978.39
2022-09-28T07:33:13.922Z,978.47
2022-09-28T07:34:13.007Z,978.42
2022-09-28T07:35:13.501Z,978.47
2022-09-28T07:36:14.499Z,978.51
2022-09-28T07:37:12.920Z,978.50
2022-09-28T07:38:12.838Z,978.57
2022-09-28T07:39:12.830Z,978.57
2022-09-28T07:40:13.499Z,978.63
2022-09-28T07:41:12.853Z,978.57
2022-09-28T07:42:12.845Z,978.56
2022-09-28T07:43:12.833Z,978.58
2022-09-28T07:44:12.904Z,978.59
2022-09-28T07:45:12.828Z,978.65
2022-09-28T07:46:13.031Z,978.54
2022-09-28T07:47:12.783Z,978.36
2022-09-28T07:48:14.354Z,978.40
2022-09-28T07:49:13.670Z,978.47
2022-09-28T07:50:13.451Z,978.46
2022-09-28T07:51:12.864Z,978.47
2022-09-28T07:52:12.782Z,978.44
2022-09-28T07:53:13.506Z,978.52
2022-09-28T07:54:14.515Z,978.58
2022-09-28T07:55:12.978Z,978.57
2022-09-28T07:56:12.830Z,978.58
2022-09-28T07:57:13.302Z,978.61
2022-09-28T07:58:13.854Z,978.62
2022-09-28T07:59:13.415Z,978.63
2022-09-28T08:00:12.846Z,978.64
2022-09-28T08:01:12.784Z,978.65
2022-09-28T08:02:13.840Z,978.65
2022-09-28T08:05:10.711Z,978.42
2022-09-28T08:06:19.334Z,978.27
2022-09-28T08:07:10.652Z,978.21
2022-09-28T08:08:12.559Z,978.20
2022-09-28T08:09:11.900Z,978.17
2022-09-28T08:10:12.078Z,978.21
2022-09-28T08:11:12.098Z,978.13
2022-09-28T08:12:11.926Z,978.16
2022-09-28T08:13:12.743Z,978.04
2022-09-28T08:14:12.767Z,977.94
2022-09-28T08:15:13.291Z,977.92
2022-09-28T08:16:13.051Z,977.94
2022-09-28T08:17:11.772Z,978.02
2022-09-28T08:18:12.570Z,978.01
2022-09-28T08:19:12.828Z,978.09
2022-09-28T08:20:12.527Z,978.16
2022-09-28T08:21:12.501Z,978.23
2022-09-28T08:22:13.360Z,978.21
2022-09-28T08:23:11.888Z,978.31
2022-09-28T08:24:11.766Z,978.40
2022-09-28T08:25:11.721Z,978.43
2022-09-28T08:26:15.398Z,978.47
2022-09-28T08:27:13.238Z,978.57
2022-09-28T08:28:12.557Z,978.53
2022-09-28T08:29:11.736Z,978.58
2022-09-28T08:30:13.792Z,978.64
2022-09-28T08:31:12.461Z,978.59
2022-09-28T08:32:11.744Z,978.63
2022-09-28T08:33:12.511Z,978.66
2022-09-28T08:34:11.996Z,978.73
2022-09-28T08:35:11.729Z,978.69
2022-09-28T08:36:11.777Z,978.71
2022-09-28T08:37:12.504Z,978.66
2022-09-28T08:38:13.243Z,978.75
2022-09-28T08:39:11.787Z,978.79
2022-09-28T08:40:12.327Z,978.88
2022-09-28T08:41:11.713Z,978.80
2022-09-28T08:42:11.718Z,978.93
2022-09-28T08:43:11.602Z,978.91
2022-09-28T08:44:11.612Z,978.87
2022-09-28T08:45:11.613Z,978.97
2022-09-28T08:46:11.701Z,978.79
2022-09-28T08:47:11.591Z,978.75
2022-09-28T08:48:11.715Z,978.68
2022-09-28T08:49:24.893Z,978.63
2022-09-28T08:50:13.553Z,978.59
2022-09-28T08:51:12.271Z,978.50
2022-09-28T08:52:11.532Z,978.49
2022-09-28T08:53:12.568Z,978.51
2022-09-28T08:54:12.102Z,978.54
2022-09-28T08:55:11.575Z,978.37
2022-09-28T08:56:11.454Z,978.37
2022-09-28T08:57:11.575Z,978.30
2022-09-28T08:58:11.500Z,978.24
2022-09-28T08:59:11.571Z,978.14
2022-09-28T09:00:12.353Z,978.16
2022-09-28T09:01:12.562Z,978.26
2022-09-28T09:02:12.775Z,978.21
2022-09-28T09:03:11.598Z,978.29
2022-09-28T09:04:12.247Z,978.31
2022-09-28T09:05:11.525Z,978.36
2022-09-28T09:06:14.237Z,978.39
2022-09-28T09:09:09.457Z,978.58
2022-09-28T09:10:09.436Z,978.58
2022-09-28T09:11:10.619Z,978.68
2022-09-28T09:12:10.551Z,978.73
2022-09-28T09:13:10.599Z,978.73
2022-09-28T09:14:10.637Z,978.76
2022-09-28T09:15:10.607Z,978.83
2022-09-28T09:16:10.548Z,978.87
2022-09-28T09:17:11.169Z,978.90
2022-09-28T09:18:10.524Z,978.84
2022-09-28T09:19:10.515Z,978.98
2022-09-28T09:20:10.561Z,979.00
2022-09-28T09:21:10.514Z,979.03
2022-09-28T09:22:10.480Z,979.09
2022-09-28T09:23:10.481Z,979.11
2022-09-28T09:24:10.501Z,979.16
2022-09-28T09:25:10.493Z,979.09
2022-09-28T09:26:10.640Z,979.20
2022-09-28T09:27:10.999Z,979.21
2022-09-28T09:28:10.446Z,979.24
2022-09-28T09:29:10.435Z,979.28
2022-09-28T09:30:10.462Z,979.28
2022-09-28T09:31:10.474Z,979.35
2022-09-28T09:32:10.407Z,979.36
2022-09-28T09:33:10.429Z,979.30
2022-09-28T09:34:10.485Z,979.33
2022-09-28T09:35:10.395Z,979.36
2022-09-28T09:36:10.434Z,979.39
2022-09-28T09:37:10.378Z,979.34
2022-09-28T09:38:11.204Z,979.47
2022-09-28T09:39:10.350Z,979.41
2022-09-28T09:40:10.359Z,979.45
2022-09-28T09:41:10.461Z,979.47
2022-09-28T09:42:11.000Z,979.53
2022-09-28T09:43:10.359Z,979.52
2022-09-28T09:44:10.405Z,979.51
2022-09-28T09:45:10.311Z,979.48
2022-09-28T09:46:10.358Z,979.51
2022-09-28T09:47:10.315Z,979.51
2022-09-28T09:48:10.310Z,979.44
2022-09-28T09:49:10.285Z,979.41
2022-09-28T09:50:10.311Z,979.41
2022-09-28T09:51:10.287Z,979.42
2022-09-28T09:52:10.305Z,979.50
2022-09-28T09:53:10.285Z,979.47
2022-09-28T09:54:10.411Z,979.47
2022-09-28T09:55:10.247Z,979.52
2022-09-28T09:56:10.323Z,979.61
2022-09-28T09:57:10.216Z,979.62
2022-09-28T09:58:10.187Z,979.68
2022-09-28T09:59:10.223Z,979.61
2022-09-28T10:00:10.215Z,979.66
2022-09-28T10:01:10.247Z,979.70
2022-09-28T10:02:11.857Z,979.69
2022-09-28T10:03:11.187Z,979.74
2022-09-28T10:04:12.005Z,979.81
2022-09-28T10:05:10.211Z,979.82
2022-09-28T10:06:10.212Z,979.77
2022-09-28T10:07:10.119Z,979.83
2022-09-28T10:08:10.207Z,979.80
2022-09-28T10:09:10.162Z,979.84
2022-09-28T10:10:10.180Z,979.75
2022-09-28T10:11:10.088Z,979.80
2022-09-28T10:12:10.120Z,979.73
2022-09-28T10:13:10.091Z,979.79
2022-09-28T10:14:10.099Z,979.75
2022-09-28T10:15:10.132Z,979.70
2022-09-28T10:16:10.075Z,979.62
2022-09-28T10:17:10.118Z,979.53
2022-09-28T10:18:10.087Z,979.51
2022-09-28T10:19:10.086Z,979.45
2022-09-28T10:20:10.036Z,979.41
2022-09-28T10:21:10.061Z,979.32
2022-09-28T10:22:10.073Z,979.32
2022-09-28T10:23:10.027Z,979.23
2022-09-28T10:24:09.989Z,979.24
2022-09-28T10:25:10.106Z,979.18
2022-09-28T10:26:10.002Z,979.14
2022-09-28T10:27:09.982Z,979.10
2022-09-28T10:28:09.963Z,979.10
2022-09-28T10:29:09.968Z,979.10
2022-09-28T10:30:09.939Z,979.10
2022-09-28T10:31:09.954Z,979.15
2022-09-28T10:32:09.948Z,979.18
2022-09-28T10:33:09.942Z,979.17
2022-09-28T10:34:09.933Z,979.08
2022-09-28T10:35:09.913Z,979.11
2022-09-28T10:36:09.905Z,979.03
2022-09-28T10:37:09.925Z,979.09
2022-09-28T10:38:09.866Z,979.08
2022-09-28T10:39:09.981Z,979.11
2022-09-28T10:40:09.880Z,979.16
2022-09-28T10:41:09.915Z,979.21
2022-09-28T10:42:09.861Z,979.17
2022-09-28T10:43:09.835Z,979.18
2022-09-28T10:44:09.877Z,979.24
2022-09-28T10:45:09.824Z,979.34
2022-09-28T10:46:09.902Z,979.30
2022-09-28T10:47:09.839Z,979.32
2022-09-28T10:48:09.791Z,979.38
2022-09-28T10:49:09.841Z,979.40
2022-09-28T10:50:09.802Z,979.25
2022-09-28T10:51:09.785Z,979.31
2022-09-28T10:52:09.845Z,979.24
2022-09-28T10:53:09.777Z,979.29
2022-09-28T10:54:09.782Z,979.23
2022-09-28T10:55:09.775Z,979.18
2022-09-28T10:56:10.745Z,979.12
2022-09-28T10:57:13.376Z,979.16
2022-09-28T10:58:10.750Z,979.14
2022-09-28T10:59:09.785Z,979.12
2022-09-28T11:00:09.757Z,979.13
2022-09-28T11:01:10.806Z,979.10
2022-09-28T11:02:10.749Z,979.06
2022-09-28T11:03:09.734Z,979.06
2022-09-28T11:04:10.709Z,978.97
2022-09-28T11:05:09.722Z,979.03
2022-09-28T11:06:09.717Z,979.06
2022-09-28T11:07:09.669Z,979.00
2022-09-28T11:08:09.697Z,978.99
2022-09-28T11:09:09.698Z,979.06
2022-09-28T11:10:09.676Z,979.07
2022-09-28T11:11:09.651Z,979.06
2022-09-28T11:12:09.685Z,979.06
2022-09-28T11:13:10.255Z,979.10
2022-09-28T11:14:09.635Z,979.16
2022-09-28T11:15:09.588Z,979.13
2022-09-28T11:16:09.590Z,979.18
2022-09-28T11:17:09.659Z,979.22
2022-09-28T11:18:09.578Z,979.24
2022-09-28T11:19:09.574Z,979.27
2022-09-28T11:20:09.572Z,979.28
2022-09-28T11:21:12.155Z,979.37
2022-09-28T11:22:13.088Z,979.39
2022-09-28T11:23:11.239Z,979.43
2022-09-28T11:24:09.516Z,979.43
2022-09-28T11:25:09.524Z,979.46
2022-09-28T11:26:09.555Z,979.40
2022-09-28T11:27:09.537Z,979.57
2022-09-28T11:28:09.497Z,979.57
2022-09-28T11:29:09.527Z,979.62
2022-09-28T11:30:09.531Z,979.68
2022-09-28T11:31:09.594Z,979.65
2022-09-28T11:32:12.510Z,979.73
2022-09-28T11:33:11.492Z,979.69
2022-09-28T11:34:09.510Z,979.74
2022-09-28T11:35:09.469Z,979.89
2022-09-28T11:36:09.440Z,979.89
2022-09-28T11:37:09.403Z,979.91
2022-09-28T11:38:09.431Z,979.92
2022-09-28T11:39:09.439Z,980.00
2022-09-28T11:40:09.406Z,979.99
2022-09-28T11:41:09.417Z,980.07
2022-09-28T11:42:12.953Z,980.02
2022-09-28T11:43:13.273Z,980.08
2022-09-28T11:44:09.390Z,980.09
2022-09-28T11:45:09.392Z,980.17
2022-09-28T11:46:10.387Z,980.15
2022-09-28T11:47:09.354Z,980.10
2022-09-28T11:48:09.353Z,980.07
2022-09-28T11:49:09.379Z,980.18
2022-09-28T11:50:09.335Z,980.16
2022-09-28T11:51:09.343Z,980.19
2022-09-28T11:52:09.337Z,980.11
2022-09-28T11:53:09.294Z,980.20
2022-09-28T11:54:09.314Z,980.11
2022-09-28T11:55:09.297Z,980.09
2022-09-28T11:56:09.319Z,980.15
2022-09-28T11:57:09.262Z,980.09
2022-09-28T11:58:09.334Z,980.14
2022-09-28T11:59:09.250Z,980.13
2022-09-28T12:00:09.322Z,980.09
2022-09-28T12:01:09.266Z,980.09
2022-09-28T12:02:09.367Z,980.04
2022-09-28T12:03:09.380Z,980.00
2022-09-28T12:04:09.261Z,980.01
2022-09-28T12:05:09.225Z,979.99
2022-09-28T12:06:09.269Z,979.91
2022-09-28T12:07:09.339Z,979.94
2022-09-28T12:08:09.219Z,979.86
2022-09-28T12:09:09.264Z,979.85
2022-09-28T12:10:09.247Z,979.86
2022-09-28T12:11:09.171Z,979.87
2022-09-28T12:12:09.171Z,979.81
2022-09-28T12:13:09.201Z,979.74
2022-09-28T12:14:09.180Z,979.77
2022-09-28T12:15:09.200Z,979.71
2022-09-28T12:17:11.233Z,979.72
2022-09-28T12:18:09.198Z,979.75
2022-09-28T12:19:09.197Z,979.72
2022-09-28T12:20:09.137Z,979.71
2022-09-28T12:21:09.131Z,979.69
2022-09-28T12:22:09.108Z,979.74
2022-09-28T12:23:09.176Z,979.78
2022-09-28T12:24:09.124Z,979.79
2022-09-28T12:25:09.093Z,979.82
2022-09-28T12:26:09.077Z,979.82
2022-09-28T12:27:09.058Z,979.88
2022-09-28T12:28:09.018Z,979.83
2022-09-28T12:29:09.056Z,979.97
2022-09-28T12:30:09.068Z,979.96
2022-09-28T12:31:09.074Z,979.93
2022-09-28T12:32:09.002Z,980.01
2022-09-28T12:33:09.005Z,980.05
2022-09-28T12:34:08.991Z,980.14
2022-09-28T12:35:08.977Z,980.16
2022-09-28T12:36:09.015Z,980.17
2022-09-28T12:37:08.942Z,980.17
2022-09-28T12:38:08.953Z,980.23
2022-09-28T12:39:19.120Z,980.24
2022-09-28T12:40:10.930Z,980.22
2022-09-28T12:41:08.941Z,980.29
2022-09-28T12:42:08.946Z,980.29
2022-09-28T12:43:08.921Z,980.36
2022-09-28T12:44:08.907Z,980.36
2022-09-28T12:45:08.912Z,980.42
2022-09-28T12:46:12.967Z,980.44
2022-09-28T12:47:09.980Z,980.50
2022-09-28T12:48:08.861Z,980.48
2022-09-28T12:51:10.853Z,980.64
2022-09-28T12:52:08.861Z,980.65
2022-09-28T12:53:08.855Z,980.59
2022-09-28T12:54:08.832Z,980.64
2022-09-28T12:55:08.795Z,980.58
2022-09-28T12:56:09.632Z,980.56
2022-09-28T12:57:08.825Z,980.52
2022-09-28T12:58:41.183Z,980.58
2022-09-28T12:59:08.758Z,980.60
2022-09-28T13:00:08.794Z,980.66
2022-09-28T13:01:08.818Z,980.68
2022-09-28T13:02:08.804Z,980.68
2022-09-28T13:03:08.791Z,980.67
2022-09-28T13:04:41.665Z,980.63
2022-09-28T13:05:08.715Z,980.61
2022-09-28T13:06:42.683Z,980.67
2022-09-28T13:07:08.724Z,980.65
2022-09-28T13:08:08.687Z,980.63
2022-09-28T13:09:08.716Z,980.62
2022-09-28T13:10:09.265Z,980.65
2022-09-28T13:11:08.711Z,980.61
2022-09-28T13:12:08.691Z,980.59
2022-09-28T13:13:08.759Z,980.54
2022-09-28T13:14:08.671Z,980.49
2022-09-28T13:15:08.672Z,980.48
2022-09-28T13:16:08.766Z,980.48